createdAt,value
2022-08-25T00:03:13.759Z,75.99
2022-08-25T00:08:16.783Z,75.99
2022-08-25T00:13:19.823Z,75.86
2022-08-25T00:18:27.442Z,76.17
2022-08-25T00:23:30.520Z,75.88
2022-08-25T00:28:34.032Z,75.94
2022-08-25T00:33:37.045Z,75.94
2022-08-25T00:38:42.139Z,76.09
2022-08-25T00:43:52.156Z,75.93
2022-08-25T00:49:04.834Z,75.76
2022-08-25T00:54:11.843Z,75.96
2022-08-25T00:59:16.670Z,75.88
2022-08-25T01:04:20.590Z,75.61
2022-08-25T01:09:24.436Z,75.67
2022-08-25T01:14:31.653Z,75.92
2022-08-25T01:19:34.719Z,76.10
2022-08-25T01:24:53.538Z,76.09
2022-08-25T01:29:58.057Z,76.17
2022-08-25T01:35:01.135Z,76.25
2022-08-25T01:40:06.770Z,76.39
2022-08-25T01:45:10.711Z,76.45
2022-08-25T01:50:16.246Z,76.71
2022-08-25T01:55:19.699Z,76.91
2022-08-25T02:00:24.631Z,77.09
2022-08-25T02:05:27.685Z,77.40
2022-08-25T02:10:33.832Z,77.28
2022-08-25T02:15:46.713Z,77.28
2022-08-25T02:20:49.777Z,77.14
2022-08-25T02:25:53.234Z,77.30
2022-08-25T02:31:01.156Z,77.22
2022-08-25T02:36:05.871Z,77.25
2022-08-25T02:41:15.930Z,77.12
2022-08-25T02:46:25.282Z,77.34
2022-08-25T02:51:30.436Z,77.49
2022-08-25T02:56:34.075Z,77.51
2022-08-25T03:01:37.184Z,77.14
2022-08-25T03:06:41.026Z,77.44
2022-08-25T03:11:44.105Z,77.27
2022-08-25T03:16:47.318Z,77.46
2022-08-25T03:21:52.609Z,77.77
2022-08-25T03:26:56.214Z,77.60
2022-08-25T03:32:00.452Z,77.61
2022-08-25T03:37:05.943Z,77.35
2022-08-25T03:42:09.071Z,77.13
2022-08-25T03:47:12.841Z,77.08
2022-08-25T03:52:18.402Z,77.23
2022-08-25T03:57:21.448Z,77.01
2022-08-25T04:02:24.627Z,76.67
2022-08-25T04:07:27.718Z,76.90
2022-08-25T04:12:30.682Z,76.93
2022-08-25T04:17:38.624Z,76.79
2022-08-25T04:22:44.886Z,76.85
2022-08-25T04:27:48.567Z,76.32
2022-08-25T04:32:51.546Z,76.58
2022-08-25T04:37:54.550Z,76.56
2022-08-25T04:42:57.754Z,76.29
2022-08-25T04:48:01.597Z,75.56
2022-08-25T04:53:04.784Z,75.16
2022-08-25T04:58:10.102Z,74.79
2022-08-25T05:03:17.811Z,74.09
2022-08-25T05:08:20.854Z,73.42
2022-08-25T05:13:26.407Z,72.67
2022-08-25T05:18:32.503Z,72.20
2022-08-25T05:23:36.436Z,71.49
2022-08-25T05:28:42.176Z,71.61
2022-08-25T05:33:45.196Z,71.26
2022-08-25T05:38:48.763Z,70.73
2022-08-25T05:43:52.071Z,70.57
2022-08-25T05:48:55.344Z,70.53
2022-08-25T05:53:58.343Z,70.33
2022-08-25T05:59:04.039Z,70.02
2022-08-25T06:04:09.559Z,70.14
2022-08-25T06:09:12.901Z,70.26
2022-08-25T06:14:16.029Z,70.18
2022-08-25T06:19:19.399Z,70.21
2022-08-25T06:24:22.810Z,70.47
2022-08-25T06:29:30.279Z,69.97
2022-08-25T06:34:36.819Z,69.72
2022-08-25T06:39:44.942Z,69.26
2022-08-25T06:44:49.388Z,69.17
2022-08-25T06:49:52.678Z,68.92
2022-08-25T06:54:55.740Z,68.83
2022-08-25T06:59:58.712Z,69.70
2022-08-25T07:05:01.727Z,69.16
2022-08-25T07:10:05.885Z,69.40
2022-08-25T07:15:19.770Z,68.59
2022-08-25T07:25:31.643Z,68.45
2022-08-25T07:30:35.212Z,68.68
2022-08-25T07:35:38.775Z,67.88
2022-08-25T07:40:43.536Z,67.37
2022-08-25T07:45:49.666Z,65.68
2022-08-25T07:50:52.775Z,65.94
2022-08-25T07:55:55.851Z,65.72
2022-08-25T08:00:58.873Z,65.24
2022-08-25T08:06:07.099Z,64.46
2022-08-25T08:11:17.427Z,64.62
2022-08-25T08:16:24.202Z,63.54
2022-08-25T08:21:32.349Z,63.79
2022-08-25T08:26:57.826Z,63.63
2022-08-25T08:31:58.596Z,62.29
2022-08-25T08:37:02.518Z,61.55
2022-08-25T08:42:54.944Z,60.84
2022-08-25T08:48:10.415Z,59.91
2022-08-25T08:53:22.982Z,61.25
2022-08-25T08:58:39.954Z,59.85
2022-08-25T09:03:55.391Z,57.67
2022-08-25T09:09:06.652Z,56.97
2022-08-25T09:15:17.525Z,55.71
2022-08-25T09:21:28.137Z,53.69
2022-08-25T09:26:52.758Z,53.24
2022-08-25T09:32:00.549Z,52.57
2022-08-25T09:37:05.147Z,52.66
2022-08-25T09:42:08.322Z,53.17
2022-08-25T09:47:18.624Z,52.41
2022-08-25T09:52:37.586Z,51.54
2022-08-25T09:57:43.371Z,49.22
2022-08-25T10:03:10.234Z,47.54
2022-08-25T10:08:32.984Z,45.56
2022-08-25T10:13:47.230Z,47.00
2022-08-25T10:19:14.578Z,45.17
2022-08-25T10:24:17.906Z,45.01
2022-08-25T10:30:07.856Z,44.58
2022-08-25T10:35:20.637Z,43.46
2022-08-25T10:40:57.963Z,42.94
2022-08-25T10:46:36.895Z,43.74
2022-08-25T10:52:16.897Z,42.18
2022-08-25T10:57:37.644Z,42.12
2022-08-25T11:03:35.588Z,42.61
2022-08-25T11:08:54.725Z,41.93
2022-08-25T11:14:19.366Z,44.88
2022-08-25T11:19:39.453Z,44.70
2022-08-25T11:25:05.839Z,43.44
2022-08-25T11:30:14.229Z,43.28
2022-08-25T11:35:27.492Z,43.27
2022-08-25T11:41:11.614Z,43.16
2022-08-25T11:46:45.718Z,46.58
2022-08-25T11:51:51.380Z,45.19
2022-08-25T11:57:10.848Z,43.75
2022-08-25T12:02:42.544Z,40.83
2022-08-25T12:07:49.073Z,40.75
2022-08-25T12:13:23.343Z,38.55
2022-08-25T12:18:32.431Z,37.58
2022-08-25T12:24:12.078Z,39.06
2022-08-25T12:29:34.906Z,38.10
2022-08-25T12:35:17.381Z,37.90
2022-08-25T12:40:33.834Z,37.57
2022-08-25T12:45:40.822Z,36.59
2022-08-25T12:50:48.305Z,36.83
2022-08-25T12:56:39.045Z,37.64
2022-08-25T13:02:24.131Z,36.98
2022-08-25T13:08:01.337Z,39.05
2022-08-25T13:13:18.112Z,38.38
2022-08-25T13:18:29.935Z,38.72
2022-08-25T13:23:38.067Z,37.83
2022-08-25T13:28:42.923Z,37.92
2022-08-25T13:34:03.578Z,37.92
2022-08-25T13:39:15.898Z,37.75
2022-08-25T13:44:22.658Z,37.65
2022-08-25T13:49:26.813Z,37.31
2022-08-25T13:54:43.280Z,36.81
2022-08-25T13:59:52.467Z,36.88
2022-08-25T14:04:55.550Z,36.70
2022-08-25T14:10:23.051Z,36.80
2022-08-25T14:15:32.190Z,37.36
2022-08-25T14:20:37.962Z,36.24
2022-08-25T14:25:42.382Z,36.50
2022-08-25T14:30:56.942Z,36.46
2022-08-25T14:36:02.977Z,35.93
2022-08-25T14:46:27.888Z,35.52
2022-08-25T14:51:33.421Z,36.28
2022-08-25T14:56:43.013Z,35.55
2022-08-25T15:01:46.554Z,35.67
2022-08-25T15:07:23.677Z,35.03
2022-08-25T15:12:46.640Z,35.36
2022-08-25T15:17:50.750Z,35.71
2022-08-25T15:22:53.782Z,36.01
2022-08-25T15:27:57.973Z,35.69
2022-08-25T15:33:01.126Z,35.59
2022-08-25T15:38:04.185Z,35.46
2022-08-25T15:43:07.702Z,35.58
2022-08-25T15:48:10.859Z,36.44
2022-08-25T15:53:14.603Z,36.30
2022-08-25T15:58:17.686Z,36.42
2022-08-25T16:03:20.703Z,36.93
2022-08-25T16:08:26.740Z,37.38
2022-08-25T16:13:29.814Z,37.65
2022-08-25T16:18:32.929Z,38.12
2022-08-25T16:23:36.408Z,37.87
2022-08-25T16:28:43.949Z,37.97
2022-08-25T16:33:47.437Z,38.25
2022-08-25T16:38:52.429Z,38.56
2022-08-25T16:43:55.479Z,38.90
2022-08-25T16:49:05.037Z,39.30
2022-08-25T16:54:30.497Z,39.68
2022-08-25T16:59:33.525Z,39.95
2022-08-25T17:04:36.845Z,40.47
2022-08-25T17:09:40.963Z,40.71
2022-08-25T17:14:43.973Z,41.10
2022-08-25T17:19:51.837Z,41.47
2022-08-25T17:25:00.719Z,41.58
2022-08-25T17:30:05.246Z,41.83
2022-08-25T17:35:09.887Z,42.08
2022-08-25T17:40:17.329Z,42.09
2022-08-25T17:45:20.391Z,42.54
2022-08-25T17:50:25.165Z,42.80
2022-08-25T17:55:28.244Z,42.80
2022-08-25T18:00:32.950Z,42.90
2022-08-25T18:05:38.575Z,43.20
2022-08-25T18:10:44.824Z,43.07
2022-08-25T18:15:47.793Z,42.92
2022-08-25T18:20:50.804Z,43.05
2022-08-25T18:26:00.846Z,43.18
2022-08-25T18:31:04.574Z,43.38
2022-08-25T18:36:10.005Z,43.47
2022-08-25T18:41:13.545Z,43.73
2022-08-25T18:46:17.323Z,43.88
2022-08-25T18:51:25.925Z,43.71
2022-08-25T18:56:29.973Z,44.11
2022-08-25T19:01:33.387Z,44.04
2022-08-25T19:06:37.465Z,43.85
2022-08-25T19:11:40.683Z,43.97
2022-08-25T19:16:44.619Z,44.04
2022-08-25T19:21:48.273Z,44.04
2022-08-25T19:26:54.578Z,44.19
2022-08-25T19:31:58.686Z,44.49
2022-08-25T19:37:06.330Z,44.35
2022-08-25T19:42:36.800Z,44.64
2022-08-25T19:47:35.083Z,44.85
2022-08-25T19:52:40.180Z,44.97
2022-08-25T19:57:46.281Z,46.31
2022-08-25T20:02:51.387Z,48.84
2022-08-25T20:07:57.749Z,50.38
2022-08-25T20:13:02.069Z,51.25
2022-08-25T20:18:05.253Z,52.02
2022-08-25T20:23:28.261Z,52.56
2022-08-25T20:28:32.478Z,52.95
2022-08-25T20:33:38.854Z,53.73
2022-08-25T20:38:44.942Z,54.13
2022-08-25T20:43:47.959Z,54.11
2022-08-25T20:48:50.981Z,54.38
2022-08-25T20:53:55.210Z,55.47
2022-08-25T20:59:00.002Z,55.45
2022-08-25T21:04:14.300Z,56.12
2022-08-25T21:09:23.077Z,56.14
2022-08-25T21:14:26.638Z,56.56
2022-08-25T21:19:32.011Z,56.56
2022-08-25T21:24:35.354Z,57.48
2022-08-25T21:29:38.907Z,57.45
2022-08-25T21:34:53.350Z,57.66
2022-08-25T21:39:56.727Z,57.55
2022-08-25T21:45:00.069Z,57.88
2022-08-25T21:50:06.376Z,58.12
2022-08-25T21:55:16.177Z,58.52
2022-08-25T22:00:21.216Z,59.17
2022-08-25T22:05:24.632Z,59.11
2022-08-25T22:10:27.684Z,58.90
2022-08-25T22:15:31.270Z,59.08
2022-08-25T22:20:34.321Z,59.38
2022-08-25T22:25:42.787Z,59.45
2022-08-25T22:30:45.860Z,59.56
2022-08-25T22:35:53.155Z,59.66
2022-08-25T22:41:02.954Z,60.13
2022-08-25T22:46:08.347Z,60.37
2022-08-25T22:51:21.468Z,60.59
2022-08-25T22:56:33.224Z,60.39
2022-08-25T23:01:36.813Z,60.37
2022-08-25T23:06:41.100Z,60.15
2022-08-25T23:11:45.585Z,60.29
2022-08-25T23:16:50.147Z,60.36
2022-08-25T23:22:13.307Z,60.91
2022-08-25T23:27:22.102Z,60.94
2022-08-25T23:32:26.998Z,60.83
2022-08-25T23:37:31.317Z,60.83
2022-08-25T23:42:34.280Z,61.44
2022-08-25T23:47:37.667Z,61.73
2022-08-25T23:52:40.645Z,62.15
2022-08-25T23:57:44.032Z,62.12
